Time;durP1;ratioP1;P1;durP2;ratioP2;P2;SDS_P1;SDS_P2;PMS_P1;PMS_P2;Temp;Humidity;BMP_temperature;BMP_pressure;BME280_temperature;BME280_humidity;BME280_pressure;Samples;Min_cycle;Max_cycle;Signal;HPM_P1;HPM_P2
2022/07/19 00:02:01;;;;;;;7.57;5.37;;;16.50;99.90;;;;;;6100305;23;20283;-87
2022/07/19 00:04:26;;;;;;;10.10;6.20;;;16.50;99.90;;;;;;6100401;23;20660;-87
2022/07/19 00:06:54;;;;;;;8.40;6.10;;;16.50;99.90;;;;;;6100257;23;20200;-86
2022/07/19 00:09:21;;;;;;;7.97;6.33;;;16.50;99.90;;;;;;6077051;23;20220;-87
2022/07/19 00:11:47;;;;;;;7.73;5.50;;;16.50;99.90;;;;;;6101334;23;20591;-87
2022/07/19 00:14:13;;;;;;;11.83;5.90;;;16.50;99.90;;;;;;6100277;23;20216;-86
2022/07/19 00:16:39;;;;;;;7.53;5.70;;;16.50;99.90;;;;;;6100494;23;20192;-86
2022/07/19 00:19:05;;;;;;;7.03;5.57;;;16.40;99.90;;;;;;6100266;23;20291;-86
2022/07/19 00:21:31;;;;;;;11.37;5.17;;;16.50;99.90;;;;;;6124554;23;20192;-86
2022/07/19 00:23:57;;;;;;;8.60;5.83;;;16.50;99.90;;;;;;6077304;23;20596;-88
2022/07/19 00:26:22;;;;;;;9.90;5.43;;;16.40;99.90;;;;;;6076570;23;20267;-87
2022/07/19 00:28:48;;;;;;;8.03;5.60;;;16.40;99.90;;;;;;6100375;23;20219;-87
2022/07/19 00:31:14;;;;;;;8.13;5.40;;;16.30;99.90;;;;;;6100524;23;20760;-87
2022/07/19 00:33:40;;;;;;;6.53;5.70;;;16.30;99.90;;;;;;6100268;23;20208;-87
2022/07/19 00:36:06;;;;;;;8.43;6.30;;;16.30;99.90;;;;;;6100321;23;20187;-87
2022/07/19 00:38:32;;;;;;;14.10;6.73;;;16.30;99.90;;;;;;6101250;23;20164;-87
2022/07/19 00:41:01;;;;;;;8.70;6.83;;;16.30;99.90;;;;;;6077134;23;20188;-87
2022/07/19 00:43:27;;;;;;;11.57;6.30;;;16.30;99.90;;;;;;6126633;23;20196;-87
2022/07/19 00:45:53;;;;;;;7.67;5.83;;;16.30;99.90;;;;;;6101781;23;20275;-87
2022/07/19 00:48:19;;;;;;;9.80;7.10;;;16.30;99.90;;;;;;6077777;23;20192;-87
2022/07/19 00:50:45;;;;;;;7.30;6.40;;;16.30;99.90;;;;;;6103176;23;20255;-87
2022/07/19 00:53:13;;;;;;;7.37;6.57;;;16.40;99.90;;;;;;6101906;23;20191;-87
2022/07/19 00:55:40;;;;;;;10.30;6.43;;;16.30;99.90;;;;;;6126478;23;20202;-87
2022/07/19 00:58:06;;;;;;;7.90;6.80;;;16.30;99.90;;;;;;6126428;23;20212;-86
2022/07/19 01:00:34;;;;;;;8.73;6.77;;;16.30;99.90;;;;;;6127377;23;20196;-87
2022/07/19 01:03:01;;;;;;;7.50;5.50;;;16.30;99.90;;;;;;6078973;23;20163;-87
2022/07/19 01:05:27;;;;;;;7.53;6.13;;;16.20;99.90;;;;;;6126332;23;20196;-87
2022/07/19 01:07:53;;;;;;;7.07;6.20;;;16.10;99.90;;;;;;6101994;23;20204;-87
2022/07/19 01:10:19;;;;;;;9.50;6.73;;;16.10;99.90;;;;;;6126133;23;20196;-87
2022/07/19 01:12:45;;;;;;;6.60;6.00;;;16.10;99.90;;;;;;6078061;23;20227;-87
2022/07/19 01:15:20;;;;;;;7.20;6.27;;;16.00;99.90;;;;;;6127801;23;20156;-88
2022/07/19 01:17:47;;;;;;;9.73;6.93;;;16.00;99.90;;;;;;6126709;23;20187;-87
2022/07/19 01:20:13;;;;;;;8.73;6.53;;;16.00;99.90;;;;;;6101909;23;20220;-87
2022/07/19 01:22:41;;;;;;;9.17;7.30;;;16.00;99.90;;;;;;6102066;23;20207;-87
2022/07/19 01:25:08;;;;;;;9.93;7.37;;;16.10;99.90;;;;;;6126208;23;20583;-87
2022/07/19 01:27:45;;;;;;;14.10;7.07;;;16.10;99.90;;;;;;6078092;23;20214;-87
2022/07/19 01:30:17;;;;;;;9.10;6.77;;;16.10;99.90;;;;;;6126317;23;20223;-87
2022/07/19 01:32:43;;;;;;;8.13;6.50;;;16.20;99.90;;;;;;6126680;23;20152;-87
2022/07/19 01:35:09;;;;;;;8.90;6.20;;;16.20;99.90;;;;;;6101328;23;20218;-87
2022/07/19 01:37:36;;;;;;;7.10;6.30;;;16.20;99.90;;;;;;6101817;23;20200;-87
2022/07/19 01:40:04;;;;;;;7.80;6.77;;;16.20;99.90;;;;;;6127632;23;20196;-88
2022/07/19 01:42:30;;;;;;;9.30;6.60;;;16.10;99.90;;;;;;6101971;23;21113;-88
2022/07/19 01:44:56;;;;;;;10.63;7.07;;;16.10;99.90;;;;;;6102170;23;20589;-87
2022/07/19 01:47:21;;;;;;;9.53;7.20;;;16.10;99.90;;;;;;6126160;23;20593;-88
2022/07/19 01:49:47;;;;;;;10.43;6.47;;;16.10;99.90;;;;;;6077499;23;20196;-88
2022/07/19 01:52:13;;;;;;;6.87;6.17;;;16.10;99.90;;;;;;6101654;23;20633;-88
2022/07/19 01:54:38;;;;;;;9.07;6.67;;;16.20;99.90;;;;;;6126382;23;20196;-88
2022/07/19 01:57:04;;;;;;;6.83;6.13;;;16.30;99.90;;;;;;6078416;23;20164;-88
2022/07/19 01:59:30;;;;;;;10.60;7.30;;;16.30;99.90;;;;;;6102121;23;20184;-88
2022/07/19 02:01:56;;;;;;;10.67;6.80;;;16.30;99.90;;;;;;6077471;23;20252;-88
2022/07/19 02:04:21;;;;;;;8.47;6.70;;;16.30;99.90;;;;;;6077683;23;20219;-87
2022/07/19 02:06:47;;;;;;;8.90;6.63;;;16.20;99.90;;;;;;6077709;23;20207;-87
2022/07/19 02:09:13;;;;;;;8.63;6.40;;;16.10;99.90;;;;;;6125717;23;20160;-87
2022/07/19 02:11:38;;;;;;;9.37;6.67;;;16.10;99.90;;;;;;6078188;23;20239;-87
2022/07/19 02:14:08;;;;;;;8.37;6.73;;;16.10;99.90;;;;;;6077197;23;20218;-87
2022/07/19 02:16:35;;;;;;;7.80;6.07;;;16.20;99.90;;;;;;6125919;23;20196;-88
2022/07/19 02:19:02;;;;;;;10.73;6.60;;;16.20;99.90;;;;;;6101468;23;20203;-88
2022/07/19 02:21:28;;;;;;;10.30;6.93;;;16.10;99.90;;;;;;6101065;23;20188;-87
2022/07/19 02:23:53;;;;;;;8.13;6.57;;;16.10;99.90;;;;;;6101984;23;20214;-88
2022/07/19 02:26:19;;;;;;;7.47;6.03;;;16.10;99.90;;;;;;6101215;23;20756;-88
2022/07/19 02:28:45;;;;;;;13.20;7.17;;;16.10;99.90;;;;;;6077609;23;20215;-88
2022/07/19 02:31:10;;;;;;;8.10;7.13;;;16.10;99.90;;;;;;6077532;23;20246;-88
2022/07/19 02:33:36;;;;;;;8.87;6.73;;;16.20;99.90;;;;;;6101404;23;20235;-88
2022/07/19 02:36:03;;;;;;;8.23;6.83;;;16.10;99.90;;;;;;6077954;23;20176;-88
2022/07/19 02:38:30;;;;;;;12.23;8.27;;;16.10;99.90;;;;;;6101245;23;20192;-88
2022/07/19 02:40:55;;;;;;;9.37;7.13;;;16.10;99.90;;;;;;6125698;23;20196;-88
2022/07/19 02:43:21;;;;;;;8.70;6.63;;;16.20;99.90;;;;;;6101532;23;20219;-88
2022/07/19 02:45:47;;;;;;;8.87;7.50;;;16.30;99.90;;;;;;6101057;23;20923;-87
2022/07/19 02:48:13;;;;;;;11.10;7.43;;;16.20;99.90;;;;;;6125486;23;20239;-88
2022/07/19 02:50:38;;;;;;;7.60;6.80;;;16.20;99.90;;;;;;6101940;23;20550;-88
2022/07/19 02:53:04;;;;;;;10.60;7.47;;;16.20;99.90;;;;;;6076544;23;20200;-88
2022/07/19 02:55:31;;;;;;;9.17;6.77;;;16.10;99.90;;;;;;6126308;23;20203;-87
2022/07/19 02:57:56;;;;;;;6.97;6.27;;;16.00;99.90;;;;;;6101233;23;20538;-87
2022/07/19 03:00:22;;;;;;;11.03;7.20;;;16.10;99.90;;;;;;6100961;23;20155;-87
2022/07/19 03:02:48;;;;;;;11.13;7.00;;;16.10;99.90;;;;;;6101718;23;20160;-87
2022/07/19 03:05:14;;;;;;;8.87;6.80;;;16.10;99.90;;;;;;6100715;23;20196;-87
2022/07/19 03:07:40;;;;;;;12.67;7.87;;;16.20;99.90;;;;;;6100223;23;20535;-88
2022/07/19 03:10:06;;;;;;;9.30;6.83;;;16.20;99.90;;;;;;6100978;23;20618;-88
2022/07/19 03:12:32;;;;;;;11.10;6.53;;;16.30;99.90;;;;;;6124666;23;20243;-88
2022/07/19 03:14:58;;;;;;;11.77;6.53;;;16.20;99.90;;;;;;6077584;23;20188;-87
2022/07/19 03:17:23;;;;;;;7.47;6.00;;;16.10;99.90;;;;;;6100423;23;20235;-88
2022/07/19 03:19:49;;;;;;;13.93;7.33;;;15.90;99.90;;;;;;6124774;23;20565;-87
2022/07/19 03:22:15;;;;;;;10.73;7.83;;;15.90;99.90;;;;;;6076712;23;20199;-87
2022/07/19 03:24:41;;;;;;;8.33;6.93;;;15.90;99.90;;;;;;6076525;23;20231;-87
2022/07/19 03:27:07;;;;;;;9.50;7.83;;;15.90;99.90;;;;;;6100625;23;20184;-88
2022/07/19 03:29:32;;;;;;;11.73;7.20;;;15.90;99.90;;;;;;6125440;23;20164;-88
2022/07/19 03:31:58;;;;;;;8.80;7.23;;;15.90;99.90;;;;;;6076768;23;20196;-88
2022/07/19 03:34:25;;;;;;;9.83;6.80;;;15.80;99.90;;;;;;6100331;23;20218;-88
2022/07/19 03:36:51;;;;;;;11.03;7.07;;;15.70;99.90;;;;;;6126398;23;20322;-88
2022/07/19 03:39:17;;;;;;;9.37;7.67;;;15.80;99.90;;;;;;6125348;23;20164;-88
2022/07/19 03:41:43;;;;;;;8.13;7.33;;;15.80;99.90;;;;;;6101236;23;20160;-87
2022/07/19 03:44:09;;;;;;;10.60;7.50;;;15.80;99.90;;;;;;6076629;23;20227;-87
2022/07/19 03:46:34;;;;;;;11.77;8.23;;;15.90;99.90;;;;;;6076801;23;20282;-88
2022/07/19 03:49:00;;;;;;;9.20;7.53;;;16.00;99.90;;;;;;6100506;23;20509;-87
2022/07/19 03:51:26;;;;;;;13.30;8.00;;;16.10;99.90;;;;;;6100636;23;20546;-88
2022/07/19 03:53:52;;;;;;;14.53;8.40;;;16.10;99.90;;;;;;6125686;23;20164;-87
2022/07/19 03:56:18;;;;;;;10.70;7.27;;;16.10;99.90;;;;;;6100772;23;20202;-88
2022/07/19 03:58:44;;;;;;;11.10;7.97;;;16.20;99.90;;;;;;6101029;23;20819;-88
2022/07/19 04:01:10;;;;;;;8.17;7.00;;;16.40;99.90;;;;;;6076784;23;20199;-88
2022/07/19 04:03:37;;;;;;;11.83;8.10;;;16.50;99.90;;;;;;6101262;23;20191;-87
2022/07/19 04:06:05;;;;;;;8.77;7.33;;;16.50;99.90;;;;;;6101111;23;20247;-88
2022/07/19 04:08:30;;;;;;;10.07;7.17;;;16.40;99.90;;;;;;6100675;23;20250;-87
2022/07/19 04:10:56;;;;;;;11.43;7.30;;;16.40;99.90;;;;;;6076879;23;20278;-88
2022/07/19 04:13:22;;;;;;;10.97;7.80;;;16.30;99.90;;;;;;6101020;23;20196;-88
2022/07/19 04:15:47;;;;;;;10.27;7.00;;;16.30;99.90;;;;;;6101314;23;20196;-88
2022/07/19 04:18:13;;;;;;;10.23;7.77;;;16.20;99.90;;;;;;6078857;23;20164;-88
2022/07/19 04:20:39;;;;;;;8.40;6.73;;;16.20;99.90;;;;;;6127715;23;20192;-88
2022/07/19 04:23:04;;;;;;;7.87;6.60;;;16.30;99.90;;;;;;6078398;23;20258;-87
2022/07/19 04:25:30;;;;;;;12.17;7.07;;;16.40;99.90;;;;;;6078551;23;20219;-92
2022/07/19 04:27:56;;;;;;;8.40;7.07;;;16.50;99.90;;;;;;6078663;23;20665;-88
2022/07/19 04:30:22;;;;;;;8.30;7.37;;;16.60;99.90;;;;;;6102774;23;20183;-87
2022/07/19 04:32:48;;;;;;;9.13;6.60;;;16.80;99.90;;;;;;6078800;23;20167;-88
2022/07/19 04:35:15;;;;;;;7.97;6.57;;;16.90;99.90;;;;;;6078360;23;20216;-87
2022/07/19 04:37:42;;;;;;;14.00;7.43;;;17.30;99.90;;;;;;6102914;23;20209;-88
2022/07/19 04:40:09;;;;;;;9.27;6.80;;;17.50;99.90;;;;;;6102543;23;20195;-86
2022/07/19 04:42:34;;;;;;;9.27;6.23;;;17.70;99.90;;;;;;6126883;23;20203;-87
2022/07/19 04:45:00;;;;;;;12.90;6.73;;;17.90;99.90;;;;;;6100966;23;20476;-88
2022/07/19 04:47:26;;;;;;;9.80;6.83;;;18.00;99.90;;;;;;6102031;23;20208;-87
2022/07/19 04:49:52;;;;;;;8.47;6.27;;;18.00;99.90;;;;;;6125832;23;20700;-88
2022/07/19 04:52:18;;;;;;;8.30;6.37;;;18.20;99.90;;;;;;6101728;23;20268;-87
2022/07/19 04:54:43;;;;;;;8.07;6.00;;;18.30;99.90;;;;;;6101893;23;20203;-88
2022/07/19 04:57:09;;;;;;;8.73;6.73;;;18.40;99.90;;;;;;6126386;23;20261;-87
2022/07/19 04:59:35;;;;;;;8.83;6.73;;;18.30;99.90;;;;;;6102577;23;20613;-87
2022/07/19 05:02:01;;;;;;;9.67;6.97;;;18.20;99.90;;;;;;6101700;23;20288;-87
2022/07/19 05:04:26;;;;;;;9.97;6.43;;;18.10;99.90;;;;;;6126364;23;20200;-87
2022/07/19 05:06:56;;;;;;;8.67;5.93;;;18.10;99.90;;;;;;6102056;23;20236;-87
2022/07/19 05:09:24;;;;;;;8.23;6.87;;;18.20;99.90;;;;;;6103080;23;20156;-87
2022/07/19 05:11:50;;;;;;;7.70;5.93;;;18.30;99.90;;;;;;6128355;23;20178;-87
2022/07/19 05:14:16;;;;;;;9.60;7.20;;;18.40;99.90;;;;;;6126286;23;20698;-87
2022/07/19 05:16:42;;;;;;;9.27;6.57;;;18.50;99.90;;;;;;6101432;23;20192;-86
2022/07/19 05:19:08;;;;;;;10.17;6.60;;;18.70;99.90;;;;;;6076790;23;20207;-85
2022/07/19 05:21:34;;;;;;;7.23;6.20;;;18.80;99.90;;;;;;6077221;23;20192;-86
2022/07/19 05:23:59;;;;;;;10.33;6.37;;;18.90;99.90;;;;;;6078050;23;20596;-86
2022/07/19 05:26:25;;;;;;;9.23;6.63;;;19.10;99.90;;;;;;6077159;23;20204;-87
2022/07/19 05:28:51;;;;;;;7.80;6.47;;;20.00;99.90;;;;;;6101379;23;20254;-87
2022/07/19 05:31:16;;;;;;;7.70;5.90;;;21.20;99.90;;;;;;6125878;23;20514;-86
2022/07/19 05:33:42;;;;;;;6.93;5.30;;;22.10;99.90;;;;;;6101087;23;20215;-86
2022/07/19 05:36:11;;;;;;;7.17;5.37;;;22.80;99.90;;;;;;6101280;23;20149;-87
2022/07/19 05:38:40;;;;;;;10.97;5.53;;;23.30;99.90;;;;;;6079274;23;20172;-86
2022/07/19 05:41:07;;;;;;;7.60;5.67;;;23.90;99.90;;;;;;6101079;23;20223;-86
2022/07/19 05:43:34;;;;;;;10.20;5.60;;;24.30;99.90;;;;;;6101371;23;20227;-86
2022/07/19 05:46:00;;;;;;;10.63;5.50;;;25.40;99.90;;;;;;6101346;23;20198;-86
2022/07/19 05:48:26;;;;;;;8.63;5.53;;;25.90;99.90;;;;;;6126205;23;20227;-87
2022/07/19 05:50:52;;;;;;;8.30;5.43;;;25.60;99.90;;;;;;6077247;23;20235;-87
2022/07/19 05:53:18;;;;;;;9.27;5.78;;;25.40;99.90;;;;;;6076175;23;20199;-88
2022/07/19 05:55:45;;;;;;;4.75;4.28;;;26.00;99.90;;;;;;6100202;23;20576;-87
2022/07/19 05:58:10;;;;;;;7.72;5.05;;;26.50;99.90;;;;;;6076708;23;20640;-86
2022/07/19 06:00:36;;;;;;;8.60;6.10;;;26.80;99.90;;;;;;6124997;23;20207;-86
2022/07/19 06:03:02;;;;;;;5.95;5.20;;;26.90;99.90;;;;;;6076791;23;20251;-87
2022/07/19 06:05:28;;;;;;;7.43;4.90;;;27.40;99.90;;;;;;6077222;23;20579;-88
2022/07/19 06:07:54;;;;;;;5.30;4.80;;;27.10;99.90;;;;;;6076579;23;20208;-87
2022/07/19 06:10:20;;;;;;;6.22;4.75;;;27.10;99.90;;;;;;6099927;23;20274;-86
2022/07/19 06:12:46;;;;;;;6.68;4.90;;;27.40;99.90;;;;;;6076510;23;20250;-86
2022/07/19 06:15:12;;;;;;;8.68;4.70;;;27.30;99.90;;;;;;6100171;23;20167;-86
2022/07/19 06:17:38;;;;;;;6.70;4.63;;;27.20;99.90;;;;;;6100878;23;20601;-87
2022/07/19 06:20:04;;;;;;;6.90;5.18;;;27.30;99.90;;;;;;6100409;23;20207;-87
2022/07/19 06:22:31;;;;;;;8.95;5.32;;;27.50;99.90;;;;;;6076695;23;20206;-87
2022/07/19 06:24:57;;;;;;;6.90;4.57;;;27.70;99.90;;;;;;6125008;23;20207;-87
2022/07/19 06:27:23;;;;;;;5.97;4.55;;;28.00;99.90;;;;;;6125364;23;20672;-87
2022/07/19 06:29:49;;;;;;;6.25;4.70;;;28.30;99.90;;;;;;6101694;23;20156;-87
2022/07/19 06:32:15;;;;;;;7.65;4.75;;;28.60;99.90;;;;;;6077064;23;20199;-88
2022/07/19 06:34:40;;;;;;;7.75;4.72;;;28.90;99.90;;;;;;6100563;23;20645;-88
2022/07/19 06:37:06;;;;;;;5.18;4.65;;;29.10;99.90;;;;;;6077317;23;20207;-87
2022/07/19 06:39:32;;;;;;;5.70;4.88;;;29.30;99.90;;;;;;6100347;23;20628;-89
2022/07/19 06:41:58;;;;;;;6.55;4.57;;;29.90;99.90;;;;;;6101842;23;20168;-89
2022/07/19 06:44:24;;;;;;;9.23;5.15;;;29.90;99.90;;;;;;6101193;23;20207;-89
2022/07/19 06:46:50;;;;;;;6.00;4.78;;;29.80;99.90;;;;;;6100650;23;20529;-88
2022/07/19 06:49:15;;;;;;;5.18;4.60;;;30.20;99.90;;;;;;6100797;23;20716;-88
2022/07/19 06:51:41;;;;;;;6.30;5.10;;;30.20;99.90;;;;;;6075719;23;20200;-88
2022/07/19 06:54:07;;;;;;;7.32;5.13;;;30.40;99.90;;;;;;6077083;23;20594;-88
2022/07/19 06:56:32;;;;;;;4.88;4.15;;;30.30;99.90;;;;;;6077712;23;20152;-88
2022/07/19 06:58:58;;;;;;;6.63;5.18;;;30.00;99.90;;;;;;6076637;23;20589;-88
2022/07/19 07:01:25;;;;;;;7.18;5.05;;;30.30;99.90;;;;;;6076469;23;20192;-88
2022/07/19 07:03:50;;;;;;;8.27;5.20;;;30.20;99.90;;;;;;6100751;23;20203;-88
2022/07/19 07:06:16;;;;;;;6.43;4.50;;;30.40;99.90;;;;;;6100565;23;20160;-88
2022/07/19 07:08:42;;;;;;;6.78;4.72;;;30.30;99.90;;;;;;6101594;23;20227;-88
2022/07/19 07:11:08;;;;;;;6.97;4.30;;;30.20;99.90;;;;;;6076439;23;20196;-89
2022/07/19 07:13:34;;;;;;;7.18;4.45;;;29.60;99.90;;;;;;6100740;23;20196;-88
2022/07/19 07:15:59;;;;;;;6.47;4.93;;;29.50;99.90;;;;;;6100516;23;20640;-88
2022/07/19 07:18:25;;;;;;;5.82;4.00;;;29.80;99.90;;;;;;6100944;23;20208;-88
2022/07/19 07:20:51;;;;;;;4.53;4.10;;;30.00;99.90;;;;;;6077364;23;20218;-88
2022/07/19 07:23:19;;;;;;;5.10;3.97;;;30.30;99.90;;;;;;6076754;23;20197;-87
2022/07/19 07:25:45;;;;;;;6.78;4.05;;;30.40;99.90;;;;;;6101288;23;20192;-87
2022/07/19 07:28:10;;;;;;;3.90;3.50;;;30.80;99.90;;;;;;6076677;23;20643;-87
2022/07/19 07:30:36;;;;;;;5.15;4.18;;;30.60;99.90;;;;;;6076473;23;20223;-87
2022/07/19 07:33:02;;;;;;;5.20;3.78;;;30.40;99.90;;;;;;6101189;23;20169;-88
2022/07/19 07:35:28;;;;;;;6.10;3.60;;;30.10;99.90;;;;;;6076101;23;20223;-87
2022/07/19 07:37:53;;;;;;;7.30;4.30;;;30.20;99.90;;;;;;6100191;23;20195;-87
2022/07/19 07:40:19;;;;;;;5.28;3.55;;;29.90;99.90;;;;;;6076164;23;20196;-87
2022/07/19 07:42:45;;;;;;;7.68;4.13;;;30.10;99.90;;;;;;6100148;23;20191;-87
2022/07/19 07:45:11;;;;;;;4.68;4.22;;;30.30;99.90;;;;;;6100528;23;20235;-87
2022/07/19 07:47:37;;;;;;;8.65;3.92;;;30.50;99.90;;;;;;6125520;23;20188;-86
2022/07/19 07:50:05;;;;;;;6.05;4.03;;;30.90;99.90;;;;;;6076978;23;20188;-87
2022/07/19 07:52:31;;;;;;;5.43;3.67;;;31.30;99.90;;;;;;6102596;23;20207;-86
2022/07/19 07:54:56;;;;;;;4.47;3.92;;;31.40;99.90;;;;;;6102264;23;20196;-87
2022/07/19 07:57:22;;;;;;;7.65;3.55;;;31.50;99.90;;;;;;6102149;23;20471;-87
2022/07/19 07:59:48;;;;;;;6.85;3.60;;;32.00;99.90;;;;;;6078691;23;20156;-86
2022/07/19 08:02:13;;;;;;;4.43;3.58;;;31.80;99.90;;;;;;6101774;23;20227;-87
2022/07/19 08:04:39;;;;;;;7.32;4.45;;;32.00;99.90;;;;;;6078310;23;20917;-87
2022/07/19 08:07:05;;;;;;;3.70;3.35;;;32.00;99.90;;;;;;6077931;23;20347;-87
2022/07/19 08:09:31;;;;;;;5.70;3.70;;;32.10;99.90;;;;;;6078161;23;20192;-86
2022/07/19 08:11:57;;;;;;;4.68;3.17;;;32.20;99.90;;;;;;6103044;23;20616;-86
2022/07/19 08:14:23;;;;;;;4.38;3.70;;;32.30;99.90;;;;;;6102032;23;20275;-86
2022/07/19 08:16:48;;;;;;;4.18;3.45;;;32.20;99.90;;;;;;6077847;23;20199;-86
2022/07/19 08:19:14;;;;;;;4.97;3.30;;;32.40;99.90;;;;;;6126133;23;20199;-88
2022/07/19 08:21:40;;;;;;;5.97;3.85;;;33.30;99.90;;;;;;6101889;23;20200;-87
2022/07/19 08:24:05;;;;;;;4.35;2.88;;;33.00;99.90;;;;;;6126545;23;20263;-87
2022/07/19 08:26:31;;;;;;;4.03;3.60;;;32.90;99.90;;;;;;6078455;23;20891;-86
2022/07/19 08:28:57;;;;;;;3.28;2.85;;;34.00;99.90;;;;;;6101709;23;20242;-86
2022/07/19 08:31:23;;;;;;;3.65;2.90;;;34.50;99.90;;;;;;6077859;23;20196;-87
2022/07/19 08:33:49;;;;;;;5.10;2.97;;;33.90;99.90;;;;;;6077632;23;20643;-86
2022/07/19 08:36:14;;;;;;;3.80;2.80;;;33.60;99.90;;;;;;6101962;23;20156;-87
2022/07/19 08:38:40;;;;;;;3.58;2.75;;;33.50;99.90;;;;;;6126889;23;20164;-87
2022/07/19 08:41:07;;;;;;;3.78;2.90;;;33.40;99.90;;;;;;6101640;23;20204;-86
2022/07/19 08:43:32;;;;;;;5.60;2.38;;;33.40;99.90;;;;;;6078078;23;20200;-86
2022/07/19 08:46:02;;;;;;;5.63;2.65;;;33.40;99.90;;;;;;6077695;23;20196;-87
2022/07/19 08:48:34;;;;;;;4.95;3.00;;;34.20;99.90;;;;;;6127578;23;20696;-87
2022/07/19 08:51:01;;;;;;;3.78;2.88;;;34.90;99.90;;;;;;6126320;23;20195;-87
2022/07/19 08:53:30;;;;;;;4.05;2.80;;;33.90;99.90;;;;;;6125599;23;20196;-87
2022/07/19 08:55:56;;;;;;;2.45;2.25;;;34.10;99.90;;;;;;6101457;23;20270;-87
2022/07/19 08:58:22;;;;;;;4.55;2.38;;;34.70;99.90;;;;;;6077446;23;20204;-87
2022/07/19 09:00:48;;;;;;;4.70;2.70;;;35.50;99.50;;;;;;6077014;23;20203;-87
2022/07/19 09:03:13;;;;;;;3.20;2.38;;;35.50;97.10;;;;;;6077137;23;20169;-87
2022/07/19 09:05:39;;;;;;;2.65;2.45;;;34.80;98.80;;;;;;6078459;23;20156;-87
2022/07/19 09:08:06;;;;;;;2.78;2.25;;;34.70;99.20;;;;;;6125549;23;20199;-87
2022/07/19 09:10:34;;;;;;;4.00;2.25;;;33.80;99.90;;;;;;6125737;23;20206;-86
2022/07/19 09:13:15;;;;;;;2.53;2.33;;;34.20;99.90;;;;;;6101705;23;20195;-87
2022/07/19 09:15:50;;;;;;;4.28;3.03;;;34.10;99.90;;;;;;6125538;23;20195;-87
2022/07/19 09:18:17;;;;;;;2.53;2.33;;;34.20;99.60;;;;;;6126076;23;20643;-87
2022/07/19 09:20:44;;;;;;;3.72;2.55;;;33.80;99.70;;;;;;6125956;23;20160;-88
2022/07/19 09:23:11;;;;;;;2.45;2.25;;;33.00;99.90;;;;;;6101328;23;20278;-87
2022/07/19 09:25:49;;;;;;;4.13;2.22;;;33.30;99.20;;;;;;6101389;23;20203;-89
2022/07/19 09:28:16;;;;;;;4.10;1.90;;;34.10;99.20;;;;;;6125815;23;20207;-88
2022/07/19 09:30:47;;;;;;;2.17;2.00;;;33.90;99.90;;;;;;6101960;23;20200;-89
2022/07/19 09:33:27;;;;;;;2.88;2.33;;;33.60;99.90;;;;;;6125958;23;20191;-89
2022/07/19 09:35:56;;;;;;;2.83;2.28;;;33.70;99.00;;;;;;6073451;23;20157;-89
2022/07/19 09:38:23;;;;;;;4.20;2.17;;;33.90;99.00;;;;;;6072594;23;20200;-88
2022/07/19 09:40:51;;;;;;;5.80;2.38;;;34.20;98.40;;;;;;6072925;23;20197;-91
2022/07/19 09:43:19;;;;;;;2.42;2.08;;;34.20;98.70;;;;;;6073485;23;20247;-89
2022/07/19 09:45:45;;;;;;;2.63;2.00;;;33.90;99.80;;;;;;6049129;23;20231;-88
2022/07/19 09:48:11;;;;;;;3.65;2.33;;;33.50;99.50;;;;;;6072370;23;20185;-89
2022/07/19 09:50:37;;;;;;;2.80;1.85;;;33.50;98.80;;;;;;6098902;23;20164;-89
2022/07/19 09:53:05;;;;;;;2.42;2.17;;;33.40;99.90;;;;;;6048727;23;20660;-90
2022/07/19 09:55:31;;;;;;;3.05;2.05;;;33.70;99.70;;;;;;6072911;23;20192;-89
2022/07/19 09:57:58;;;;;;;2.08;1.90;;;34.10;96.60;;;;;;6072549;23;20199;-88
2022/07/19 10:00:25;;;;;;;4.22;2.25;;;34.30;96.90;;;;;;6049162;23;20157;-88
2022/07/19 10:03:00;;;;;;;3.85;2.10;;;34.30;97.30;;;;;;6072846;23;20156;-89
2022/07/19 10:05:28;;;;;;;2.20;1.98;;;34.40;98.40;;;;;;6072341;23;20650;-91
2022/07/19 10:07:55;;;;;;;3.47;2.05;;;34.20;95.80;;;;;;6048377;23;20208;-89
2022/07/19 10:10:22;;;;;;;3.75;1.90;;;33.70;99.90;;;;;;6024846;23;20196;-90
2022/07/19 10:12:50;;;;;;;3.50;1.90;;;34.30;97.30;;;;;;6048783;23;20196;-90
2022/07/19 10:15:17;;;;;;;5.25;1.40;;;34.50;98.70;;;;;;6072049;23;20157;-89
2022/07/19 10:18:08;;;;;;;2.35;1.95;;;34.40;95.00;;;;;;6025603;23;20168;-88
2022/07/19 10:20:34;;;;;;;1.83;1.73;;;34.20;96.90;;;;;;6072608;23;20173;-90
2022/07/19 10:23:01;;;;;;;2.67;1.77;;;34.60;95.80;;;;;;6024591;23;20228;-89
2022/07/19 10:25:39;;;;;;;1.83;1.70;;;34.30;99.90;;;;;;6072129;23;20200;-88
2022/07/19 10:28:05;;;;;;;2.40;2.20;;;33.70;98.70;;;;;;6072033;23;20545;-89
2022/07/19 10:30:40;;;;;;;3.13;1.88;;;33.40;98.00;;;;;;6024873;23;20196;-89
2022/07/19 10:33:32;;;;;;;3.17;2.15;;;33.40;97.30;;;;;;6097453;23;20160;-89
2022/07/19 10:36:31;;;;;;;2.97;1.92;;;33.80;98.30;;;;;;6073049;23;20598;-89
2022/07/19 10:39:19;;;;;;;6.00;1.75;;;34.10;97.10;;;;;;6072326;23;20173;-88
2022/07/19 10:42:15;;;;;;;2.35;1.88;;;34.30;96.00;;;;;;6072039;23;20181;-90
2022/07/19 10:45:04;;;;;;;2.67;1.88;;;33.90;95.40;;;;;;6072290;23;20208;-89
2022/07/19 10:47:39;;;;;;;2.65;2.08;;;33.50;95.40;;;;;;6072749;23;20196;-89
2022/07/19 10:50:10;;;;;;;2.08;1.90;;;33.40;95.00;;;;;;6072226;23;20715;-89
2022/07/19 10:52:42;;;;;;;2.42;1.70;;;33.50;95.80;;;;;;6072445;23;20729;-90
2022/07/19 10:55:20;;;;;;;1.85;1.75;;;33.10;98.70;;;;;;6072320;23;20602;-89
2022/07/19 10:58:05;;;;;;;1.70;1.52;;;33.30;98.80;;;;;;6072164;23;20203;-88
2022/07/19 11:00:39;;;;;;;1.92;1.75;;;33.30;96.90;;;;;;6072119;23;20642;-90
2022/07/19 11:03:23;;;;;;;2.10;1.90;;;33.10;98.90;;;;;;6050182;23;20145;-90
2022/07/19 11:05:50;;;;;;;2.95;2.10;;;33.10;95.60;;;;;;6072120;23;20153;-90
2022/07/19 11:08:16;;;;;;;3.42;2.08;;;33.00;95.70;;;;;;6072233;23;20223;-90
2022/07/19 11:10:43;;;;;;;4.45;1.90;;;33.10;96.20;;;;;;6072075;23;20196;-92
2022/07/19 11:13:09;;;;;;;3.78;2.00;;;32.90;96.90;;;;;;6072152;23;20508;-90
2022/07/19 11:15:35;;;;;;;3.38;1.90;;;33.00;96.10;;;;;;6024126;23;20203;-90
2022/07/19 11:18:04;;;;;;;3.30;2.10;;;32.80;96.90;;;;;;6072460;23;20164;-89
2022/07/19 11:20:35;;;;;;;2.40;2.20;;;32.50;98.10;;;;;;6071634;23;20230;-90
2022/07/19 11:23:06;;;;;;;4.90;2.10;;;32.80;97.80;;;;;;6071826;23;20207;-89
2022/07/19 11:25:34;;;;;;;2.22;1.95;;;33.00;96.30;;;;;;6071458;23;20661;-90
2022/07/19 11:28:00;;;;;;;3.58;1.80;;;33.30;97.50;;;;;;6047498;23;20263;-91
2022/07/19 11:30:29;;;;;;;3.10;1.58;;;32.90;95.00;;;;;;6048050;23;20216;-91
2022/07/19 11:32:59;;;;;;;2.90;1.92;;;32.80;95.20;;;;;;6097498;23;20477;-90
2022/07/19 11:35:26;;;;;;;2.55;1.80;;;32.90;96.50;;;;;;6119034;23;20215;-90
2022/07/19 11:37:53;;;;;;;6.68;2.80;;;33.10;93.00;;;;;;6125579;23;20527;-90
2022/07/19 11:40:20;;;;;;;4.07;2.10;;;33.40;94.60;;;;;;6124397;23;20273;-90
2022/07/19 11:42:47;;;;;;;2.10;1.90;;;33.20;94.10;;;;;;6124204;23;20211;-90
2022/07/19 11:45:15;;;;;;;2.35;1.90;;;33.00;93.10;;;;;;6100086;23;20164;-90
2022/07/19 11:47:42;;;;;;;3.50;2.22;;;33.20;96.20;;;;;;6125399;23;20527;-91
2022/07/19 11:50:10;;;;;;;1.88;1.70;;;33.40;94.20;;;;;;6100345;23;20235;-91
2022/07/19 11:53:02;;;;;;;1.73;1.40;;;33.30;92.40;;;;;;6100322;23;20287;-90
2022/07/19 11:55:37;;;;;;;3.92;1.80;;;33.00;93.30;;;;;;6117734;23;20196;-89
2022/07/19 11:58:07;;;;;;;3.03;1.80;;;32.90;94.50;;;;;;6124392;23;20202;-91
2022/07/19 12:00:34;;;;;;;4.68;1.90;;;32.90;94.70;;;;;;6100186;23;20200;-91
2022/07/19 12:03:04;;;;;;;1.42;1.33;;;33.30;93.90;;;;;;6125437;23;20590;-90
2022/07/19 12:05:32;;;;;;;3.38;2.00;;;33.10;93.60;;;;;;6124760;23;20175;-91
2022/07/19 12:08:00;;;;;;;1.77;1.52;;;33.10;92.30;;;;;;6124699;23;20251;-90
2022/07/19 12:10:39;;;;;;;2.60;1.50;;;33.30;94.70;;;;;;6100173;23;20227;-89
2022/07/19 12:13:13;;;;;;;1.75;1.65;;;33.20;92.70;;;;;;6126164;23;20199;-89
2022/07/19 12:15:53;;;;;;;1.85;1.73;;;33.00;92.40;;;;;;6125810;23;20200;-90
2022/07/19 12:18:39;;;;;;;2.63;1.60;;;33.10;94.70;;;;;;6124457;23;20173;-89
2022/07/19 12:21:18;;;;;;;1.92;1.73;;;33.00;93.90;;;;;;6124755;23;20153;-90
2022/07/19 12:24:09;;;;;;;1.70;1.60;;;33.20;94.20;;;;;;6125208;23;20180;-89
2022/07/19 12:26:35;;;;;;;2.15;1.60;;;33.30;94.80;;;;;;6126018;23;20188;-90
2022/07/19 12:29:01;;;;;;;2.17;1.60;;;33.40;92.60;;;;;;6076023;23;20226;-90
2022/07/19 12:31:26;;;;;;;1.60;1.40;;;33.40;94.00;;;;;;6124452;23;20215;-89
2022/07/19 12:34:02;;;;;;;2.80;1.55;;;33.20;93.10;;;;;;6075937;23;20216;-90
2022/07/19 12:36:37;;;;;;;2.67;1.70;;;33.10;94.10;;;;;;6124846;23;20297;-89
2022/07/19 12:39:04;;;;;;;2.08;1.52;;;33.00;95.80;;;;;;6126762;23;20164;-89
2022/07/19 12:41:30;;;;;;;1.60;1.50;;;33.20;94.10;;;;;;6126289;23;20255;-90
2022/07/19 12:43:56;;;;;;;3.15;1.77;;;33.30;94.00;;;;;;6102154;23;20192;-90
2022/07/19 12:46:24;;;;;;;1.77;1.55;;;33.30;92.30;;;;;;6102137;23;20220;-89
2022/07/19 12:48:50;;;;;;;3.22;1.52;;;33.40;97.40;;;;;;6101968;23;20531;-90